Boomer, West Virginia
Current Conditions -  °F | °C
As of 4:38 AM on Friday 31 Oct 2014 (Local Time) from KCRW Reporting Station
Haze Haze  
Wind Chill: 35°   Ceiling: 12000
Heat Index: 35°   Visibility: 6mi
Dew Point: 34°   Wind: 0mph
Humidity: 96%   Direction: NA
Pressure: 30"   Gusts: NA
Location:  38.15°N, 81.29°W
Report Text: KCRW 310838Z 00000KT 6SM BR FEW001 OVC120 02/01 A3000 RMK AO2 DNS VLY FG T00170011
Loading
Personal Weather Stations






























Interactive Weather Map
Tropical Storm Tracking
New forecast layout! Learn more

10-Day Weather Forecast

Advertisements
Track Severe Weather on mobile